Time;durP1;ratioP1;P1;durP2;ratioP2;P2;SDS_P1;SDS_P2;PMS_P1;PMS_P2;Temp;Humidity;BMP_temperature;BMP_pressure;BME280_temperature;BME280_humidity;BME280_pressure;Samples;Min_cycle;Max_cycle;Signal;HPM_P1;HPM_P2
2021/07/27 00:01:59;;;;;;;10.70;8.10;;;23.50;97.00;;;;;;4249817;28;20061;-77
2021/07/27 00:04:02;;;;;;;13.07;8.43;;;23.50;97.20;;;;;;4249388;28;20053;-75
2021/07/27 00:06:06;;;;;;;12.93;8.52;;;23.60;97.10;;;;;;4250493;27;20051;-75
2021/07/27 00:08:10;;;;;;;17.83;8.73;;;23.60;97.10;;;;;;4250046;27;20051;-74
2021/07/27 00:10:13;;;;;;;10.32;8.32;;;23.50;97.20;;;;;;4250514;27;20047;-76
2021/07/27 00:12:16;;;;;;;10.15;8.45;;;23.50;97.20;;;;;;4251014;27;20047;-76
2021/07/27 00:14:19;;;;;;;15.68;9.35;;;23.50;97.30;;;;;;4251058;27;20045;-76
2021/07/27 00:16:23;;;;;;;13.05;8.20;;;23.50;97.20;;;;;;4250662;27;20057;-75
2021/07/27 00:18:26;;;;;;;15.40;8.48;;;23.50;97.20;;;;;;4252218;27;20047;-77
2021/07/27 00:20:29;;;;;;;14.45;8.77;;;23.40;97.30;;;;;;4252450;27;20070;-75
2021/07/27 00:22:32;;;;;;;13.77;8.88;;;23.30;97.20;;;;;;4251533;27;20065;-75
2021/07/27 00:24:37;;;;;;;11.65;8.95;;;23.30;97.30;;;;;;4250703;27;20039;-75
2021/07/27 00:26:40;;;;;;;16.70;8.73;;;23.30;97.30;;;;;;4249839;27;20126;-76
2021/07/27 00:28:43;;;;;;;15.50;8.80;;;23.20;97.30;;;;;;4248268;27;20059;-75
2021/07/27 00:30:46;;;;;;;10.95;8.52;;;23.20;97.30;;;;;;4248361;27;20680;-75
2021/07/27 00:32:50;;;;;;;14.43;9.05;;;23.20;97.40;;;;;;4251208;27;20046;-76
2021/07/27 00:34:54;;;;;;;13.65;8.88;;;23.20;97.60;;;;;;4257862;27;20124;-75
2021/07/27 00:36:57;;;;;;;14.13;8.88;;;23.20;97.50;;;;;;4251885;27;20044;-76
2021/07/27 00:39:00;;;;;;;12.93;9.45;;;23.20;97.50;;;;;;4250169;27;20042;-75
2021/07/27 00:41:04;;;;;;;10.65;8.73;;;23.10;97.70;;;;;;4232075;28;20092;-75
2021/07/27 00:43:10;;;;;;;12.82;8.75;;;23.10;97.70;;;;;;4251081;27;20077;-75
2021/07/27 00:45:14;;;;;;;12.60;8.90;;;23.10;97.70;;;;;;4251773;27;20039;-75
2021/07/27 00:47:17;;;;;;;14.50;9.05;;;23.10;97.90;;;;;;4250473;27;20051;-75
2021/07/27 00:49:20;;;;;;;12.75;8.57;;;23.10;97.80;;;;;;4250129;27;20055;-74
2021/07/27 00:51:23;;;;;;;15.68;9.55;;;23.10;97.70;;;;;;4249495;27;20051;-75
2021/07/27 00:53:27;;;;;;;17.33;8.43;;;23.10;97.50;;;;;;4248819;27;20051;-76
2021/07/27 00:55:31;;;;;;;11.00;8.32;;;23.00;97.80;;;;;;4247749;27;20058;-74
2021/07/27 00:57:37;;;;;;;10.60;8.35;;;22.80;97.80;;;;;;4249094;27;20053;-75
2021/07/27 00:59:40;;;;;;;13.80;8.30;;;22.90;97.90;;;;;;4248483;27;20408;-77
2021/07/27 01:01:43;;;;;;;12.10;8.90;;;22.90;98.10;;;;;;4249084;27;20054;-74
2021/07/27 01:03:46;;;;;;;15.50;8.80;;;22.90;98.10;;;;;;4249204;27;20043;-75
2021/07/27 01:05:50;;;;;;;14.25;8.20;;;22.80;98.10;;;;;;4251562;27;20047;-73
2021/07/27 01:07:53;;;;;;;11.75;8.27;;;22.80;98.20;;;;;;4254092;27;20055;-75
2021/07/27 01:09:56;;;;;;;13.85;8.48;;;22.80;98.00;;;;;;4253254;27;20059;-74
2021/07/27 01:12:01;;;;;;;15.27;8.32;;;22.80;98.10;;;;;;4256558;27;20055;-75
2021/07/27 01:14:05;;;;;;;13.48;9.05;;;22.80;98.10;;;;;;4256674;27;20408;-75
2021/07/27 01:16:10;;;;;;;17.50;9.23;;;22.80;98.20;;;;;;4253556;27;20081;-75
2021/07/27 01:18:22;;;;;;;11.30;8.18;;;22.70;98.30;;;;;;4251531;27;20462;-75
2021/07/27 01:20:36;;;;;;;12.48;9.20;;;22.70;98.20;;;;;;4247852;27;20051;-75
2021/07/27 01:43:30;;;;;;;11.88;8.30;;;22.70;98.70;;;;;;4246760;27;20409;-74
2021/07/27 01:45:33;;;;;;;12.38;8.48;;;22.70;98.50;;;;;;4247778;27;20403;-75
2021/07/27 01:47:36;;;;;;;12.55;7.70;;;22.80;98.40;;;;;;4246274;27;20051;-74
2021/07/27 01:49:40;;;;;;;13.35;8.50;;;22.80;98.40;;;;;;4247691;27;20069;-76
2021/07/27 01:51:45;;;;;;;12.40;8.05;;;22.70;98.50;;;;;;4247479;27;20130;-74
2021/07/27 01:53:50;;;;;;;12.82;8.18;;;22.60;98.60;;;;;;4247385;27;20495;-74
2021/07/27 01:55:55;;;;;;;13.10;9.20;;;22.60;98.80;;;;;;4248501;27;20039;-75
2021/07/27 01:57:59;;;;;;;13.68;9.15;;;22.50;99.00;;;;;;4245837;27;20063;-74
2021/07/27 02:00:05;;;;;;;11.45;8.18;;;22.50;99.00;;;;;;4248500;27;20047;-75
2021/07/27 02:02:08;;;;;;;11.65;8.68;;;22.50;99.10;;;;;;4247235;27;20119;-75
2021/07/27 02:04:12;;;;;;;14.23;8.43;;;22.50;99.20;;;;;;4248348;27;20055;-76
2021/07/27 02:06:16;;;;;;;10.23;8.20;;;22.50;99.20;;;;;;4250071;27;20560;-75
2021/07/27 02:08:20;;;;;;;16.02;8.40;;;22.40;99.10;;;;;;4247160;27;20047;-74
2021/07/27 02:10:24;;;;;;;13.63;8.77;;;22.40;99.20;;;;;;4247056;27;20051;-76
2021/07/27 02:12:36;;;;;;;12.40;8.38;;;22.50;99.30;;;;;;4248514;27;20043;-75
2021/07/27 02:17:02;;;;;;;11.50;8.15;;;22.60;99.10;;;;;;4250258;27;20053;-74
2021/07/27 02:19:05;;;;;;;11.30;7.95;;;22.60;99.20;;;;;;4249756;27;20497;-76
2021/07/27 02:21:08;;;;;;;14.50;8.20;;;22.50;99.20;;;;;;4247201;27;20058;-75
2021/07/27 02:23:11;;;;;;;12.60;9.00;;;22.40;99.30;;;;;;4246042;27;20411;-74
2021/07/27 02:25:14;;;;;;;11.75;8.63;;;22.50;99.20;;;;;;4247494;27;20415;-74
2021/07/27 02:27:17;;;;;;;13.02;8.60;;;22.60;99.20;;;;;;4246162;27;20055;-74
2021/07/27 02:29:22;;;;;;;11.82;8.80;;;22.50;99.30;;;;;;4247803;27;20058;-75
2021/07/27 02:31:33;;;;;;;14.15;9.00;;;22.60;99.10;;;;;;4247588;27;20039;-75
2021/07/27 02:33:37;;;;;;;15.35;8.02;;;22.60;99.20;;;;;;4247609;27;20484;-74
2021/07/27 02:35:40;;;;;;;12.80;8.23;;;22.60;99.20;;;;;;4245772;27;20043;-74
2021/07/27 02:37:43;;;;;;;14.85;8.93;;;22.50;99.40;;;;;;4247216;27;20043;-75
2021/07/27 02:39:46;;;;;;;17.90;8.55;;;22.50;99.40;;;;;;4254708;27;20107;-73
2021/07/27 02:41:49;;;;;;;14.65;7.95;;;22.40;99.50;;;;;;4247586;27;20050;-74
2021/07/27 02:43:52;;;;;;;12.32;8.45;;;22.40;99.50;;;;;;4245765;27;20055;-74
2021/07/27 02:45:57;;;;;;;15.50;8.57;;;22.40;99.50;;;;;;4247002;27;20660;-75
2021/07/27 02:48:00;;;;;;;15.93;8.98;;;22.40;99.50;;;;;;4245766;27;20055;-74
2021/07/27 02:50:04;;;;;;;12.10;8.45;;;22.50;99.40;;;;;;4247506;27;20058;-74
2021/07/27 02:52:07;;;;;;;12.73;9.15;;;22.50;99.50;;;;;;4247018;27;20114;-74
2021/07/27 02:54:10;;;;;;;11.07;8.75;;;22.60;99.40;;;;;;4245861;27;20059;-73
2021/07/27 02:56:13;;;;;;;11.93;8.10;;;22.60;99.50;;;;;;4247594;27;20049;-74
2021/07/27 02:58:31;;;;;;;12.95;9.15;;;22.60;99.40;;;;;;4247516;27;20051;-78
2021/07/27 03:00:34;;;;;;;12.25;8.25;;;22.60;99.30;;;;;;4247214;27;20055;-74
2021/07/27 03:02:40;;;;;;;12.90;8.23;;;22.60;99.40;;;;;;4246386;27;20055;-74
2021/07/27 03:04:43;;;;;;;10.52;7.70;;;22.50;99.50;;;;;;4247786;27;20063;-74
2021/07/27 03:06:47;;;;;;;14.85;8.75;;;22.50;99.60;;;;;;4247945;27;20055;-74
2021/07/27 03:10:16;;;;;;;13.82;8.88;;;22.60;99.50;;;;;;4247691;27;20039;-74
2021/07/27 03:11:14;;;;;;;11.15;8.40;;;22.50;99.60;;;;;;4236465;27;20055;-75
2021/07/27 03:13:17;;;;;;;14.57;9.18;;;22.40;99.50;;;;;;4248794;27;20579;-76
2021/07/27 03:15:22;;;;;;;14.32;8.75;;;22.40;99.60;;;;;;4247612;27;20566;-73
2021/07/27 03:17:26;;;;;;;17.13;8.93;;;22.30;99.60;;;;;;4245772;27;20058;-75
2021/07/27 03:19:31;;;;;;;11.02;8.35;;;22.30;99.80;;;;;;4250492;27;20059;-74
2021/07/27 03:21:34;;;;;;;12.70;8.55;;;22.20;99.90;;;;;;4250800;27;20058;-75
2021/07/27 03:23:37;;;;;;;12.77;9.20;;;22.30;99.80;;;;;;4251096;27;20621;-76
2021/07/27 03:25:40;;;;;;;12.27;9.05;;;22.30;99.90;;;;;;4247440;27;20055;-74
2021/07/27 03:27:44;;;;;;;13.75;8.80;;;22.20;99.90;;;;;;4247169;27;20122;-75
2021/07/27 03:29:47;;;;;;;13.13;8.67;;;22.30;99.90;;;;;;4247317;27;20411;-75
2021/07/27 03:31:50;;;;;;;13.80;8.43;;;22.30;99.80;;;;;;4247865;27;20054;-74
2021/07/27 03:33:53;;;;;;;11.73;8.40;;;22.30;99.80;;;;;;4246930;27;20385;-73
2021/07/27 03:38:29;;;;;;;13.80;9.00;;;22.30;99.60;;;;;;4644547;23;20455;-75
2021/07/27 03:40:33;;;;;;;14.98;8.60;;;22.30;99.60;;;;;;4162463;28;20053;-74
2021/07/27 03:42:36;;;;;;;16.50;9.27;;;22.30;99.70;;;;;;4163262;28;20053;-75
2021/07/27 03:44:39;;;;;;;13.27;8.18;;;22.30;99.60;;;;;;4165057;28;20472;-74
2021/07/27 03:46:52;;;;;;;13.35;9.07;;;22.30;99.60;;;;;;4165983;28;20064;-74
2021/07/27 03:48:55;;;;;;;12.05;8.77;;;22.30;99.30;;;;;;4166177;28;20539;-75
2021/07/27 03:50:58;;;;;;;15.32;8.80;;;22.40;99.30;;;;;;4165517;28;20054;-75
2021/07/27 03:53:01;;;;;;;17.63;8.75;;;22.40;99.50;;;;;;4165608;28;20053;-75
2021/07/27 03:55:06;;;;;;;12.70;8.50;;;22.40;99.50;;;;;;4166133;28;20511;-73
2021/07/27 03:57:09;;;;;;;10.18;8.52;;;22.40;99.40;;;;;;4165819;28;20408;-77
2021/07/27 03:59:14;;;;;;;15.68;9.18;;;22.50;99.30;;;;;;4165732;28;20056;-74
2021/07/27 04:01:17;;;;;;;;;;;22.50;99.30;;;;;;4166046;28;20144;-75
2021/07/27 04:03:20;;;;;;;12.48;8.05;;;22.40;99.40;;;;;;4165762;28;19921;-73
2021/07/27 04:05:23;;;;;;;16.08;8.70;;;22.40;99.40;;;;;;4165355;28;20053;-76
2021/07/27 04:07:26;;;;;;;12.80;8.00;;;22.40;99.50;;;;;;4165433;28;20053;-74
2021/07/27 04:09:30;;;;;;;15.90;9.23;;;22.40;99.40;;;;;;4165423;28;20056;-75
2021/07/27 04:11:34;;;;;;;15.80;9.23;;;22.50;99.60;;;;;;4165509;28;20079;-74
2021/07/27 04:13:37;;;;;;;12.82;8.50;;;22.50;99.50;;;;;;4165422;28;20083;-74
2021/07/27 04:15:41;;;;;;;12.00;8.40;;;22.50;99.30;;;;;;4165191;28;20083;-74
2021/07/27 04:17:44;;;;;;;13.43;9.00;;;22.50;99.50;;;;;;4165448;28;20049;-72
2021/07/27 04:19:47;;;;;;;14.13;8.93;;;22.50;99.40;;;;;;4165171;28;20057;-73
2021/07/27 04:21:50;;;;;;;14.00;8.23;;;22.50;99.50;;;;;;4165441;28;20049;-75
2021/07/27 04:23:53;;;;;;;11.77;8.68;;;22.60;99.30;;;;;;4165524;28;20065;-75
2021/07/27 04:25:58;;;;;;;15.90;9.77;;;22.60;99.30;;;;;;4165378;28;20529;-75
2021/07/27 04:28:02;;;;;;;16.02;8.77;;;22.60;99.30;;;;;;4164172;28;20068;-76
2021/07/27 04:30:07;;;;;;;13.95;8.82;;;22.60;99.20;;;;;;4165119;28;20059;-76
2021/07/27 04:32:10;;;;;;;13.00;9.27;;;22.60;99.40;;;;;;4165479;28;20519;-75
2021/07/27 04:34:13;;;;;;;12.50;8.45;;;22.50;99.30;;;;;;4165075;28;20058;-77
2021/07/27 04:36:16;;;;;;;12.40;9.40;;;22.60;99.40;;;;;;4165315;28;20141;-72
2021/07/27 04:38:19;;;;;;;12.90;9.30;;;22.50;99.40;;;;;;4165063;28;20049;-76
2021/07/27 04:40:22;;;;;;;14.07;8.85;;;22.50;99.40;;;;;;4164875;28;20057;-75
2021/07/27 04:42:25;;;;;;;16.20;9.40;;;22.60;99.40;;;;;;4164768;28;20050;-78
2021/07/27 04:44:29;;;;;;;12.68;8.27;;;22.60;99.50;;;;;;4163657;28;20144;-75
2021/07/27 04:46:33;;;;;;;13.48;8.73;;;22.60;99.20;;;;;;4165065;28;20053;-76
2021/07/27 04:48:37;;;;;;;17.63;8.75;;;22.60;99.40;;;;;;4164950;28;20054;-75
2021/07/27 04:50:43;;;;;;;14.13;8.57;;;22.70;99.10;;;;;;4164763;28;20057;-76
2021/07/27 04:52:58;;;;;;;14.45;8.75;;;22.70;99.10;;;;;;4164705;28;20049;-75
2021/07/27 04:55:02;;;;;;;12.75;8.85;;;22.70;99.00;;;;;;4164624;28;20058;-75
2021/07/27 04:57:05;;;;;;;16.08;9.43;;;22.80;98.70;;;;;;4164843;28;20505;-74
2021/07/27 04:59:08;;;;;;;13.32;8.00;;;22.80;98.80;;;;;;4164992;28;20060;-77
2021/07/27 05:01:12;;;;;;;12.15;8.48;;;22.80;98.70;;;;;;4164908;28;20053;-74
2021/07/27 05:03:16;;;;;;;12.23;8.73;;;22.80;98.80;;;;;;4164933;28;20061;-75
2021/07/27 05:05:19;;;;;;;18.67;8.68;;;22.70;99.10;;;;;;4164721;28;20079;-75
2021/07/27 05:07:22;;;;;;;14.98;9.13;;;22.70;99.20;;;;;;4164622;28;20413;-74
2021/07/27 05:09:26;;;;;;;13.82;8.25;;;22.70;98.90;;;;;;4164780;28;20050;-74
2021/07/27 05:11:29;;;;;;;16.25;9.55;;;22.60;99.10;;;;;;4164702;28;20056;-73
2021/07/27 05:13:36;;;;;;;13.15;8.88;;;22.50;99.10;;;;;;4164603;28;20053;-76
2021/07/27 05:15:39;;;;;;;15.63;8.70;;;22.50;99.30;;;;;;4164568;28;20050;-74
2021/07/27 05:17:44;;;;;;;14.70;8.90;;;22.40;99.40;;;;;;4164523;28;20505;-73
2021/07/27 05:19:51;;;;;;;13.90;8.75;;;22.50;99.50;;;;;;4164428;28;20554;-74
2021/07/27 05:21:54;;;;;;;16.75;8.85;;;22.40;99.40;;;;;;4164694;28;20521;-75
2021/07/27 05:23:57;;;;;;;17.10;8.98;;;22.50;99.40;;;;;;4163042;28;20057;-74
2021/07/27 05:26:03;;;;;;;12.63;8.57;;;22.40;99.40;;;;;;4164531;28;20076;-76
2021/07/27 05:28:07;;;;;;;11.88;8.73;;;22.40;99.50;;;;;;4164766;28;20062;-75
2021/07/27 05:30:12;;;;;;;12.02;8.77;;;22.30;99.60;;;;;;4164218;28;20058;-74
2021/07/27 05:32:15;;;;;;;13.80;8.95;;;22.20;99.80;;;;;;4164624;28;20553;-74
2021/07/27 05:34:20;;;;;;;11.05;8.88;;;22.10;99.80;;;;;;4164499;28;20580;-77
2021/07/27 05:36:23;;;;;;;17.00;9.38;;;22.10;99.90;;;;;;4164386;28;20053;-75
2021/07/27 05:38:26;;;;;;;18.42;8.98;;;22.00;99.90;;;;;;4164430;28;20060;-74
2021/07/27 05:40:31;;;;;;;15.18;9.25;;;22.00;99.90;;;;;;4164989;28;20541;-75
2021/07/27 05:42:34;;;;;;;15.90;8.57;;;22.00;99.90;;;;;;4164730;28;20454;-77
2021/07/27 05:44:37;;;;;;;16.70;8.57;;;21.90;99.80;;;;;;4164582;28;20065;-73
2021/07/27 05:46:40;;;;;;;11.30;8.32;;;21.90;99.90;;;;;;4164177;28;20484;-76
2021/07/27 05:48:46;;;;;;;21.05;9.05;;;21.80;99.90;;;;;;4163876;28;20461;-74
2021/07/27 05:50:51;;;;;;;16.73;8.43;;;21.70;99.90;;;;;;4163771;28;20053;-74
2021/07/27 05:52:56;;;;;;;12.57;8.65;;;21.60;99.90;;;;;;4164263;28;20053;-76
2021/07/27 05:54:59;;;;;;;17.17;9.40;;;21.60;99.90;;;;;;4164145;28;20053;-74
2021/07/27 05:57:03;;;;;;;15.52;9.07;;;21.60;99.90;;;;;;4164057;28;20053;-74
2021/07/27 05:59:06;;;;;;;16.65;9.18;;;21.60;99.90;;;;;;4163913;28;20056;-76
2021/07/27 06:01:09;;;;;;;19.95;9.25;;;21.60;99.90;;;;;;4163885;28;20046;-75
2021/07/27 06:03:12;;;;;;;14.82;9.18;;;21.70;99.90;;;;;;4163807;28;20057;-74
2021/07/27 06:05:15;;;;;;;19.50;9.00;;;21.80;99.90;;;;;;4163933;28;20053;-73
2021/07/27 06:07:20;;;;;;;19.17;9.15;;;21.80;99.90;;;;;;4162982;28;20084;-74
2021/07/27 06:09:23;;;;;;;16.05;9.02;;;21.70;99.90;;;;;;4162704;28;20062;-74
2021/07/27 06:11:26;;;;;;;14.70;8.05;;;21.60;99.90;;;;;;4163613;28;20054;-75
2021/07/27 06:13:29;;;;;;;20.98;9.40;;;21.70;99.90;;;;;;4163451;28;20538;-75
2021/07/27 06:15:32;;;;;;;13.00;8.25;;;21.80;99.90;;;;;;4163543;28;20063;-75
2021/07/27 06:17:35;;;;;;;17.00;9.27;;;21.90;99.90;;;;;;4163636;28;20060;-75
2021/07/27 06:19:38;;;;;;;14.75;9.30;;;21.70;99.90;;;;;;4163983;28;20072;-73
2021/07/27 06:21:41;;;;;;;23.95;9.38;;;21.60;99.90;;;;;;4163277;28;20049;-73
2021/07/27 06:23:46;;;;;;;17.73;9.25;;;21.50;99.90;;;;;;4163337;28;20061;-75
2021/07/27 06:25:49;;;;;;;14.07;9.15;;;21.50;99.90;;;;;;4163711;28;20067;-76
2021/07/27 06:27:52;;;;;;;14.73;8.50;;;21.70;99.90;;;;;;4163379;28;20054;-74
2021/07/27 06:29:55;;;;;;;13.27;8.40;;;21.70;99.90;;;;;;4162123;28;20054;-72
2021/07/27 06:31:58;;;;;;;14.07;8.45;;;21.80;99.90;;;;;;4163206;28;20077;-74
2021/07/27 06:34:02;;;;;;;19.73;9.00;;;21.70;99.90;;;;;;4163285;28;20057;-75
2021/07/27 06:36:05;;;;;;;17.60;8.93;;;21.70;99.90;;;;;;4163031;28;20053;-73
2021/07/27 06:38:08;;;;;;;16.60;8.65;;;21.70;99.90;;;;;;4163221;28;20053;-75
2021/07/27 06:40:13;;;;;;;24.52;10.75;;;21.70;99.90;;;;;;4163302;28;20672;-75
2021/07/27 06:42:16;;;;;;;;;;;21.80;99.90;;;;;;4162515;28;20584;-76
2021/07/27 06:44:19;;;;;;;16.17;9.35;;;22.00;99.90;;;;;;4162880;28;19925;-74
2021/07/27 06:46:22;;;;;;;19.60;9.45;;;21.90;99.90;;;;;;4163040;28;20486;-74
2021/07/27 06:48:25;;;;;;;18.45;9.80;;;21.80;99.90;;;;;;4163065;28;20056;-74
2021/07/27 06:50:28;;;;;;;28.25;10.68;;;21.80;99.90;;;;;;4163021;28;20072;-75
2021/07/27 06:52:31;;;;;;;19.35;9.23;;;21.80;99.90;;;;;;4163087;28;20062;-75
2021/07/27 06:54:34;;;;;;;19.13;10.52;;;21.60;99.90;;;;;;4162722;28;20057;-74
2021/07/27 06:56:39;;;;;;;33.88;12.82;;;21.60;99.90;;;;;;4162817;28;20049;-77
2021/07/27 06:58:42;;;;;;;36.10;12.75;;;21.70;99.90;;;;;;4162909;28;20599;-76
2021/07/27 07:00:45;;;;;;;26.50;9.07;;;21.70;99.90;;;;;;4163014;28;20414;-74
2021/07/27 07:02:48;;;;;;;20.40;9.50;;;21.60;99.90;;;;;;4162995;28;20077;-75
2021/07/27 07:04:51;;;;;;;19.65;9.00;;;21.70;99.90;;;;;;4162562;28;20555;-76
2021/07/27 07:06:54;;;;;;;20.77;9.95;;;21.70;99.90;;;;;;4162455;28;20080;-75
2021/07/27 07:08:57;;;;;;;20.05;9.30;;;21.50;99.90;;;;;;4163096;28;20061;-75
2021/07/27 07:11:02;;;;;;;16.55;9.73;;;21.50;99.90;;;;;;4162750;28;20409;-75
2021/07/27 07:13:06;;;;;;;;;;;21.60;99.90;;;;;;4163128;28;20053;-75
2021/07/27 07:15:10;;;;;;;16.08;9.13;;;21.70;99.90;;;;;;4162746;28;20361;-76
2021/07/27 07:17:13;;;;;;;19.63;10.43;;;21.60;99.90;;;;;;4162744;28;20058;-73
2021/07/27 07:19:18;;;;;;;13.90;9.07;;;21.70;99.90;;;;;;4162681;28;20063;-74
2021/07/27 07:21:21;;;;;;;18.42;9.70;;;21.80;99.90;;;;;;4162579;28;20053;-73
2021/07/27 07:23:24;;;;;;;14.77;8.95;;;22.00;99.90;;;;;;4162526;28;20058;-74
2021/07/27 07:25:27;;;;;;;19.92;9.50;;;22.00;99.90;;;;;;4162318;28;20054;-74
2021/07/27 07:27:30;;;;;;;19.90;9.48;;;22.10;99.90;;;;;;4162680;28;20056;-77
2021/07/27 07:29:35;;;;;;;16.90;9.02;;;22.10;99.80;;;;;;4162575;28;20524;-73
2021/07/27 07:31:38;;;;;;;17.73;9.82;;;22.10;99.90;;;;;;4162449;28;20061;-74
2021/07/27 07:33:41;;;;;;;23.00;8.75;;;21.90;99.80;;;;;;4162587;28;20489;-74
2021/07/27 07:35:44;;;;;;;17.40;8.43;;;21.70;99.60;;;;;;4162429;28;20060;-75
2021/07/27 07:37:47;;;;;;;17.70;8.68;;;21.80;99.70;;;;;;4162298;28;20057;-75
2021/07/27 07:39:50;;;;;;;14.40;8.45;;;21.70;99.90;;;;;;4161969;28;20057;-73
2021/07/27 07:41:52;;;;;;;14.05;8.35;;;21.50;99.90;;;;;;4162453;28;20056;-73
2021/07/27 07:43:55;;;;;;;16.52;8.85;;;21.60;99.90;;;;;;4162317;28;20060;-74
2021/07/27 07:46:00;;;;;;;15.23;9.45;;;21.80;99.90;;;;;;4162406;28;20064;-74
2021/07/27 07:48:03;;;;;;;18.40;8.57;;;21.80;99.90;;;;;;4162362;28;20046;-75
2021/07/27 07:50:07;;;;;;;14.57;8.45;;;21.70;99.90;;;;;;4162650;28;20054;-73
2021/07/27 07:52:10;;;;;;;14.55;8.27;;;21.70;99.70;;;;;;4162550;28;20069;-76
2021/07/27 07:54:13;;;;;;;22.38;8.65;;;21.60;99.90;;;;;;4162276;28;20064;-74
2021/07/27 07:56:16;;;;;;;16.15;8.48;;;21.70;99.90;;;;;;4162231;28;20076;-75
2021/07/27 07:58:19;;;;;;;18.77;8.82;;;21.80;99.70;;;;;;4162432;28;20057;-74
2021/07/27 08:00:25;;;;;;;17.55;8.73;;;21.80;99.30;;;;;;4162380;28;20062;-74
2021/07/27 08:02:30;;;;;;;18.05;8.13;;;21.70;99.80;;;;;;4162296;28;20072;-73
2021/07/27 08:04:33;;;;;;;18.02;9.38;;;21.90;99.70;;;;;;4162305;28;20061;-74
2021/07/27 08:06:36;;;;;;;13.57;8.65;;;21.90;99.30;;;;;;4162011;28;20658;-75
2021/07/27 08:08:39;;;;;;;20.77;9.05;;;22.10;99.20;;;;;;4162552;28;20412;-76
2021/07/27 08:10:42;;;;;;;14.15;8.35;;;22.20;99.10;;;;;;4162005;28;20054;-75
2021/07/27 08:12:47;;;;;;;13.15;8.30;;;22.30;98.90;;;;;;4162089;28;20053;-73
2021/07/27 08:14:50;;;;;;;;;;;22.20;98.50;;;;;;4162467;28;20072;-73
2021/07/27 08:16:53;;;;;;;20.90;7.78;;;22.00;98.80;;;;;;4162269;28;19921;-76
2021/07/27 08:19:00;;;;;;;16.70;7.82;;;22.00;99.00;;;;;;4161883;28;20049;-73
2021/07/27 08:21:03;;;;;;;15.15;8.02;;;22.00;98.90;;;;;;4162146;28;20058;-75
2021/07/27 08:23:06;;;;;;;17.40;8.55;;;21.90;99.00;;;;;;4162068;28;20049;-74
2021/07/27 08:25:18;;;;;;;12.05;7.93;;;21.80;99.30;;;;;;4162077;28;20058;-75
2021/07/27 08:27:21;;;;;;;17.80;8.10;;;21.80;99.50;;;;;;4162273;28;20053;-76
2021/07/27 08:29:25;;;;;;;14.25;8.18;;;21.90;99.10;;;;;;4162092;28;20132;-75
2021/07/27 08:31:28;;;;;;;13.52;7.88;;;21.70;98.60;;;;;;4164984;28;20413;-73
2021/07/27 08:33:31;;;;;;;17.20;8.30;;;21.90;98.60;;;;;;4165377;28;20064;-76
2021/07/27 08:35:36;;;;;;;18.23;9.13;;;21.90;98.90;;;;;;4165229;28;20060;-74
2021/07/27 08:37:39;;;;;;;21.95;9.35;;;21.90;99.10;;;;;;4164923;28;20049;-74
2021/07/27 08:39:42;;;;;;;12.23;8.65;;;22.00;99.10;;;;;;4164758;28;20059;-73
2021/07/27 08:41:49;;;;;;;16.05;8.57;;;22.00;99.40;;;;;;4165183;28;20073;-74
2021/07/27 08:43:52;;;;;;;20.70;8.25;;;22.00;99.30;;;;;;4165012;28;20067;-73
2021/07/27 08:45:55;;;;;;;22.90;9.32;;;22.00;99.30;;;;;;4163743;28;20403;-74
2021/07/27 08:47:59;;;;;;;20.42;9.27;;;22.00;99.80;;;;;;4165002;28;20052;-76
2021/07/27 08:50:05;;;;;;;16.65;9.05;;;22.10;99.30;;;;;;4165047;28;20049;-73
2021/07/27 08:52:09;;;;;;;13.20;8.13;;;22.30;99.10;;;;;;4165244;28;20507;-74
2021/07/27 08:54:14;;;;;;;15.32;9.20;;;22.40;99.20;;;;;;4164884;28;20136;-73
2021/07/27 08:56:17;;;;;;;17.73;9.18;;;22.50;99.20;;;;;;4164595;28;20061;-75
2021/07/27 08:58:20;;;;;;;18.85;8.82;;;22.30;99.10;;;;;;4165016;28;20083;-73
2021/07/27 09:00:24;;;;;;;18.27;9.23;;;22.20;98.80;;;;;;4164743;28;20504;-73
2021/07/27 09:02:28;;;;;;;19.02;9.60;;;22.20;99.70;;;;;;4163450;28;20046;-74
2021/07/27 09:04:31;;;;;;;18.42;9.63;;;22.20;99.90;;;;;;4164629;28;20378;-73
2021/07/27 09:06:35;;;;;;;15.70;8.93;;;22.30;99.90;;;;;;4164547;28;20096;-76
2021/07/27 09:08:39;;;;;;;20.13;9.52;;;22.20;99.80;;;;;;4164417;28;20050;-75
2021/07/27 09:10:44;;;;;;;13.43;8.68;;;22.20;99.80;;;;;;4164685;28;20072;-76
2021/07/27 09:12:55;;;;;;;13.77;9.95;;;22.10;99.50;;;;;;4164490;28;20468;-76
2021/07/27 09:15:03;;;;;;;18.13;10.35;;;22.20;99.80;;;;;;4164420;28;20049;-75
2021/07/27 09:17:06;;;;;;;12.25;9.48;;;22.20;99.90;;;;;;4164596;28;20068;-75
2021/07/27 09:19:10;;;;;;;18.10;10.20;;;22.00;99.80;;;;;;4164662;28;20061;-75
2021/07/27 09:21:21;;;;;;;18.10;10.10;;;22.00;99.90;;;;;;4164302;28;20049;-75
2021/07/27 09:23:27;;;;;;;18.92;10.40;;;21.90;99.90;;;;;;4164659;28;20049;-72
2021/07/27 09:25:33;;;;;;;21.40;9.55;;;22.00;99.90;;;;;;4164579;28;20064;-75
2021/07/27 09:27:36;;;;;;;19.33;9.52;;;21.90;99.90;;;;;;4164184;28;20057;-75
2021/07/27 09:29:44;;;;;;;16.30;9.00;;;21.90;99.90;;;;;;4164518;28;20083;-75
2021/07/27 09:31:50;;;;;;;15.05;8.30;;;21.80;99.90;;;;;;4164422;28;20057;-75
2021/07/27 09:33:54;;;;;;;15.18;8.90;;;21.80;99.90;;;;;;4164199;28;20069;-76
2021/07/27 09:35:57;;;;;;;13.45;8.52;;;21.80;99.90;;;;;;4164204;28;20060;-76
2021/07/27 09:38:08;;;;;;;12.30;9.40;;;21.90;99.90;;;;;;4164199;28;20057;-75
2021/07/27 09:40:12;;;;;;;12.60;8.90;;;22.00;99.90;;;;;;4164004;28;20042;-75
2021/07/27 09:42:17;;;;;;;25.15;10.52;;;22.10;99.90;;;;;;4162948;28;20054;-75
2021/07/27 09:44:20;;;;;;;16.40;8.75;;;22.10;99.90;;;;;;4164209;28;20486;-75
2021/07/27 09:46:24;;;;;;;24.67;10.48;;;22.20;99.90;;;;;;4164095;28;20053;-77
2021/07/27 09:48:29;;;;;;;23.40;11.02;;;22.20;99.90;;;;;;4164171;28;20064;-77
2021/07/27 09:50:33;;;;;;;15.73;9.68;;;22.30;99.90;;;;;;4164013;28;20091;-76
2021/07/27 09:52:38;;;;;;;16.53;9.37;;;22.30;99.90;;;;;;4163871;28;20060;-77
2021/07/27 09:54:41;;;;;;;20.05;9.85;;;22.20;99.90;;;;;;4164119;28;20481;-74
2021/07/27 09:56:44;;;;;;;13.52;9.60;;;22.30;99.90;;;;;;4163565;28;20053;-76
2021/07/27 09:58:49;;;;;;;18.50;10.13;;;22.30;99.90;;;;;;4163960;28;20405;-74
2021/07/27 10:00:55;;;;;;;13.00;8.95;;;22.30;99.90;;;;;;4164333;28;20046;-74
2021/07/27 10:02:59;;;;;;;13.73;9.13;;;22.10;99.90;;;;;;4159463;28;20500;-76
2021/07/27 10:05:03;;;;;;;18.65;10.05;;;22.10;99.90;;;;;;4171405;28;20042;-77
2021/07/27 10:07:28;;;;;;;17.58;9.75;;;22.10;99.90;;;;;;4171425;28;20321;-76
2021/07/27 10:09:34;;;;;;;16.70;9.68;;;22.20;99.90;;;;;;4182411;28;20060;-75
2021/07/27 10:11:40;;;;;;;19.25;9.32;;;22.20;99.90;;;;;;4188129;28;20128;-74
2021/07/27 10:13:48;;;;;;;13.55;9.15;;;22.30;99.90;;;;;;4187592;28;20048;-76
2021/07/27 10:15:54;;;;;;;11.07;9.10;;;22.50;99.90;;;;;;4187339;28;20065;-75
2021/07/27 10:17:57;;;;;;;13.05;9.45;;;22.40;99.90;;;;;;4173765;28;20069;-76
2021/07/27 10:20:01;;;;;;;14.23;9.38;;;22.40;99.90;;;;;;4171157;28;20056;-74
2021/07/27 10:22:06;;;;;;;15.13;10.57;;;22.40;99.90;;;;;;4172198;28;20136;-75
2021/07/27 10:24:14;;;;;;;12.32;8.55;;;22.20;99.90;;;;;;4172540;28;20274;-74
2021/07/27 10:26:26;;;;;;;12.32;9.02;;;22.10;99.90;;;;;;4172524;28;20119;-76
2021/07/27 10:28:29;;;;;;;15.18;9.88;;;22.30;99.90;;;;;;4172492;28;20077;-74
2021/07/27 10:30:35;;;;;;;17.60;8.48;;;22.20;99.90;;;;;;4172320;28;20121;-74
2021/07/27 10:32:50;;;;;;;13.23;8.88;;;22.00;99.90;;;;;;4172531;28;20333;-75
2021/07/27 10:34:54;;;;;;;;;;;21.80;99.90;;;;;;4173174;28;20061;-74
2021/07/27 10:37:05;;;;;;;10.95;7.50;;;21.80;99.90;;;;;;4172446;28;19942;-74
2021/07/27 10:39:13;;;;;;;10.63;7.97;;;21.80;99.90;;;;;;4172401;28;20120;-74
2021/07/27 10:41:18;;;;;;;11.60;8.07;;;21.90;99.90;;;;;;4172503;28;20049;-77
2021/07/27 10:43:24;;;;;;;12.90;8.10;;;21.90;99.90;;;;;;4172228;28;20103;-75
2021/07/27 10:45:27;;;;;;;12.20;7.45;;;21.80;99.90;;;;;;4172335;28;20124;-73
2021/07/27 10:47:30;;;;;;;14.60;8.27;;;21.90;99.90;;;;;;4172836;28;20076;-74
2021/07/27 10:49:35;;;;;;;12.07;8.30;;;21.70;99.90;;;;;;4172500;28;20076;-74
2021/07/27 10:51:39;;;;;;;11.48;9.05;;;21.70;99.90;;;;;;4172090;28;20355;-74
2021/07/27 10:53:50;;;;;;;9.90;7.65;;;21.70;99.90;;;;;;4171936;28;20049;-76
2021/07/27 10:55:53;;;;;;;13.48;8.27;;;21.70;99.90;;;;;;4171712;28;20052;-73
2021/07/27 10:58:00;;;;;;;13.48;8.77;;;21.60;99.90;;;;;;4171969;28;20400;-73
2021/07/27 11:00:04;;;;;;;12.30;9.50;;;21.60;99.90;;;;;;4172323;28;20061;-75
2021/07/27 11:02:11;;;;;;;12.13;9.88;;;21.80;99.90;;;;;;4172197;28;20396;-73
2021/07/27 11:04:15;;;;;;;13.35;9.20;;;21.90;99.90;;;;;;4172275;28;20064;-74
2021/07/27 11:06:21;;;;;;;13.85;9.60;;;22.00;99.90;;;;;;4172192;28;20041;-76